createdAt,value
2019-02-16T00:00:48.871Z,2.00
2019-02-16T00:03:29.299Z,2.00
2019-02-16T00:06:09.765Z,2.00
2019-02-16T00:08:50.375Z,1.90
2019-02-16T00:11:30.807Z,1.90
2019-02-16T00:14:11.472Z,1.90
2019-02-16T00:16:52.423Z,1.90
2019-02-16T00:19:32.951Z,1.90
2019-02-16T00:22:13.615Z,1.80
2019-02-16T00:24:54.632Z,1.80
2019-02-16T00:27:35.012Z,1.80
2019-02-16T00:30:15.691Z,1.80
2019-02-16T00:32:56.193Z,1.70
2019-02-16T00:35:39.647Z,1.70
2019-02-16T00:38:20.571Z,1.70
2019-02-16T00:41:01.375Z,1.60
2019-02-16T00:43:41.940Z,1.60
2019-02-16T00:46:23.073Z,1.50
2019-02-16T00:49:03.858Z,1.50
2019-02-16T00:51:44.565Z,1.50
2019-02-16T00:54:25.312Z,1.40
2019-02-16T00:57:06.306Z,1.40
2019-02-16T00:59:46.933Z,1.40
2019-02-16T01:02:27.415Z,1.40
2019-02-16T01:05:08.399Z,1.40
2019-02-16T01:07:49.386Z,1.30
2019-02-16T01:10:30.556Z,1.30
2019-02-16T01:13:11.219Z,1.20
2019-02-16T01:15:51.809Z,1.20
2019-02-16T01:18:32.776Z,1.20
2019-02-16T01:21:22.193Z,1.20
2019-02-16T01:23:55.536Z,1.10
2019-02-16T01:26:36.271Z,1.10
2019-02-16T01:29:16.704Z,1.10
2019-02-16T01:31:57.680Z,1.10
2019-02-16T01:34:38.330Z,1.10
2019-02-16T01:37:18.915Z,1.10
2019-02-16T01:39:59.591Z,1.10
2019-02-16T01:42:40.153Z,1.00
2019-02-16T01:45:20.905Z,0.80
2019-02-16T01:48:01.651Z,0.70
2019-02-16T01:50:42.620Z,0.60
2019-02-16T01:53:23.199Z,0.50
2019-02-16T01:56:03.783Z,0.40
2019-02-16T01:58:44.531Z,0.40
2019-02-16T02:01:25.027Z,0.40
2019-02-16T02:04:05.336Z,0.30
2019-02-16T02:06:45.823Z,0.30
2019-02-16T02:09:26.164Z,0.30
2019-02-16T02:12:06.895Z,0.30
2019-02-16T02:14:47.349Z,0.30
2019-02-16T02:17:28.460Z,0.40
2019-02-16T02:20:09.463Z,0.40
2019-02-16T02:22:50.440Z,0.40
2019-02-16T02:25:31.567Z,0.40
2019-02-16T02:28:12.113Z,0.20
2019-02-16T02:30:52.265Z,0.20
2019-02-16T02:33:32.668Z,0.10
2019-02-16T02:36:13.116Z,0.20
2019-02-16T02:38:54.051Z,0.20
2019-02-16T02:41:34.676Z,0.20
2019-02-16T02:44:15.273Z,0.20
2019-02-16T02:46:55.960Z,0.20
2019-02-16T02:49:36.807Z,0.30
2019-02-16T02:52:17.309Z,0.30
2019-02-16T02:54:57.967Z,0.20
2019-02-16T02:57:38.868Z,0.20
2019-02-16T03:00:19.395Z,0.20
2019-02-16T03:02:59.753Z,0.20
2019-02-16T03:05:40.467Z,0.10
2019-02-16T03:08:21.804Z,0.10
2019-02-16T03:11:02.907Z,0.00
2019-02-16T03:13:43.451Z,0.00
2019-02-16T03:16:26.088Z,0.00
2019-02-16T03:19:06.344Z,0.00
2019-02-16T03:21:46.532Z,0.00
2019-02-16T03:24:27.186Z,0.00
2019-02-16T03:27:07.692Z,0.00
2019-02-16T03:29:48.480Z,0.00
2019-02-16T03:32:28.978Z,0.00
2019-02-16T03:35:09.960Z,-0.10
2019-02-16T03:37:50.663Z,-0.10
2019-02-16T03:40:30.923Z,-0.20
2019-02-16T03:43:11.589Z,-0.20
2019-02-16T03:45:52.261Z,-0.20
2019-02-16T03:48:32.431Z,-0.30
2019-02-16T03:51:13.605Z,-0.20
2019-02-16T03:53:54.120Z,-0.30
2019-02-16T03:56:34.824Z,-0.40
2019-02-16T03:59:15.903Z,-0.50
2019-02-16T04:01:56.613Z,-0.60
2019-02-16T04:04:36.959Z,-0.70
2019-02-16T04:07:17.788Z,-0.80
2019-02-16T04:09:58.967Z,-0.80
2019-02-16T04:12:39.458Z,-0.90
2019-02-16T04:15:20.155Z,-0.90
2019-02-16T04:18:00.503Z,-0.90
2019-02-16T04:20:41.311Z,-0.90
2019-02-16T04:23:21.924Z,-0.90
2019-02-16T04:26:04.143Z,-0.80
2019-02-16T04:28:44.888Z,-0.80
2019-02-16T04:31:25.765Z,-0.80
2019-02-16T04:34:06.189Z,-0.80
2019-02-16T04:36:46.665Z,-0.80
2019-02-16T04:39:26.856Z,-0.80
2019-02-16T04:42:07.989Z,-0.70
2019-02-16T04:44:48.948Z,-0.70
2019-02-16T04:47:29.515Z,-0.70
2019-02-16T04:50:10.291Z,-0.60
2019-02-16T04:55:34.899Z,-0.70
2019-02-16T04:58:15.771Z,-0.70
2019-02-16T05:00:56.283Z,-0.70
2019-02-16T05:03:36.907Z,-0.70
2019-02-16T05:06:17.813Z,-0.70
2019-02-16T05:08:58.336Z,-0.80
2019-02-16T05:11:38.768Z,-0.90
2019-02-16T05:14:19.640Z,-1.00
2019-02-16T05:17:00.564Z,-1.10
2019-02-16T05:19:41.292Z,-1.10
2019-02-16T05:22:22.299Z,-1.20
2019-02-16T05:25:02.614Z,-1.20
2019-02-16T05:27:43.135Z,-1.20
2019-02-16T05:30:23.828Z,-1.20
2019-02-16T05:33:04.543Z,-1.20
2019-02-16T05:35:45.481Z,-1.20
2019-02-16T05:38:26.027Z,-1.20
2019-02-16T05:41:06.496Z,-1.20
2019-02-16T05:43:47.083Z,-1.10
2019-02-16T05:46:27.900Z,-1.10
2019-02-16T05:49:08.805Z,-1.10
2019-02-16T05:51:49.528Z,-1.10
2019-02-16T05:54:30.177Z,-1.20
2019-02-16T05:57:14.013Z,-1.10
2019-02-16T05:59:55.338Z,-1.10
2019-02-16T06:02:35.948Z,-1.00
2019-02-16T06:05:16.644Z,-1.00
2019-02-16T06:07:57.660Z,-1.00
2019-02-16T06:10:38.405Z,-1.00
2019-02-16T06:13:18.833Z,-1.00
2019-02-16T06:15:59.148Z,-1.00
2019-02-16T06:18:39.632Z,-1.10
2019-02-16T06:21:20.352Z,-1.20
2019-02-16T06:24:00.991Z,-1.30
2019-02-16T06:26:41.851Z,-1.30
2019-02-16T06:29:22.727Z,-1.30
2019-02-16T06:32:03.320Z,-1.40
2019-02-16T06:34:43.973Z,-1.40
2019-02-16T06:37:25.379Z,-1.40
2019-02-16T06:40:06.555Z,-1.40
2019-02-16T06:42:46.924Z,-1.40
2019-02-16T06:45:27.624Z,-1.40
2019-02-16T06:48:08.485Z,-1.30
2019-02-16T06:50:49.256Z,-1.30
2019-02-16T06:53:29.699Z,-1.20
2019-02-16T06:56:11.745Z,-1.20
2019-02-16T06:58:52.312Z,-1.10
2019-02-16T07:01:33.230Z,-1.00
2019-02-16T07:04:14.227Z,-0.80
2019-02-16T07:06:54.971Z,-0.70
2019-02-16T07:09:35.448Z,-0.60
2019-02-16T07:12:15.988Z,-0.60
2019-02-16T07:14:56.951Z,-0.40
2019-02-16T07:17:42.279Z,-0.20
2019-02-16T07:20:23.308Z,0.10
2019-02-16T07:23:04.118Z,0.30
2019-02-16T07:25:44.931Z,0.50
2019-02-16T07:28:25.691Z,0.50
2019-02-16T07:31:06.328Z,0.60
2019-02-16T07:33:47.024Z,0.60
2019-02-16T07:36:27.820Z,0.60
2019-02-16T07:39:08.359Z,0.60
2019-02-16T07:41:49.228Z,0.70
2019-02-16T07:44:52.401Z,0.80
2019-02-16T07:47:37.465Z,0.90
2019-02-16T07:50:20.011Z,1.00
2019-02-16T07:53:02.373Z,1.20
2019-02-16T07:55:45.151Z,1.40
2019-02-16T07:58:30.787Z,1.60
2019-02-16T08:04:07.228Z,2.10
2019-02-16T08:06:52.735Z,2.50
2019-02-16T08:09:35.684Z,2.80
2019-02-16T08:12:17.728Z,3.00
2019-02-16T08:15:02.767Z,3.20
2019-02-16T08:20:47.723Z,3.70
2019-02-16T08:26:54.803Z,5.40
2019-02-16T08:30:01.721Z,5.90
2019-02-16T08:33:08.665Z,6.90
2019-02-16T08:36:15.800Z,8.30
2019-02-16T08:39:22.905Z,9.60
2019-02-16T08:42:29.832Z,11.60
2019-02-16T08:45:36.979Z,13.10
2019-02-16T08:48:44.111Z,14.20
2019-02-16T08:51:51.260Z,15.70
2019-02-16T08:54:58.167Z,17.50
2019-02-16T08:58:05.312Z,19.20
2019-02-16T09:01:12.456Z,21.10
2019-02-16T09:10:23.171Z,25.30
2019-02-16T09:19:19.566Z,26.50
2019-02-16T09:22:19.155Z,27.00
2019-02-16T09:25:19.404Z,27.20
2019-02-16T09:28:19.837Z,27.60
2019-02-16T09:31:02.175Z,28.30
2019-02-16T09:34:02.536Z,29.20
2019-02-16T09:36:49.130Z,29.60
2019-02-16T09:39:56.036Z,29.60
2019-02-16T09:48:52.575Z,26.90
2019-02-16T09:51:59.483Z,26.10
2019-02-16T10:03:54.490Z,26.50
2019-02-16T10:07:01.407Z,26.40
2019-02-16T10:10:08.553Z,25.30
2019-02-16T10:13:15.699Z,25.60
2019-02-16T10:16:22.603Z,26.60
2019-02-16T10:19:29.545Z,27.00
2019-02-16T10:22:12.083Z,27.60
2019-02-16T10:27:48.147Z,25.70
2019-02-16T10:30:30.488Z,24.70
2019-02-16T10:33:13.091Z,24.00
2019-02-16T10:39:02.228Z,23.50
2019-02-16T10:45:07.603Z,24.60
2019-02-16T10:48:08.236Z,24.00
2019-02-16T10:54:14.024Z,23.60
2019-02-16T11:00:18.799Z,26.40
2019-02-16T11:03:01.648Z,26.00
2019-02-16T11:08:40.247Z,26.20
2019-02-16T11:11:22.540Z,28.00
2019-02-16T11:14:23.899Z,27.90
2019-02-16T11:17:06.307Z,27.60
2019-02-16T11:20:06.515Z,27.50
2019-02-16T11:26:09.804Z,28.10
2019-02-16T11:28:52.574Z,28.30
2019-02-16T11:34:47.209Z,28.60
2019-02-16T11:37:29.092Z,29.20
2019-02-16T11:40:12.088Z,29.50
2019-02-16T11:46:17.496Z,28.30
2019-02-16T11:48:59.960Z,27.90
2019-02-16T11:52:00.794Z,28.60
2019-02-16T11:54:45.580Z,29.50
2019-02-16T11:57:46.497Z,30.60
2019-02-16T12:00:48.065Z,31.20
2019-02-16T12:06:33.845Z,31.40
2019-02-16T12:09:16.499Z,30.40
2019-02-16T12:12:19.356Z,30.50
2019-02-16T12:18:27.664Z,29.90
2019-02-16T12:21:29.216Z,30.60
2019-02-16T12:27:18.775Z,31.70
2019-02-16T12:33:23.920Z,31.70
2019-02-16T12:47:40.392Z,29.50
2019-02-16T12:50:25.383Z,30.40
2019-02-16T12:53:26.172Z,31.70
2019-02-16T12:56:28.796Z,32.60
2019-02-16T13:02:36.820Z,33.10
2019-02-16T13:08:42.550Z,32.10
2019-02-16T13:14:47.818Z,31.40
2019-02-16T13:17:29.893Z,31.70
2019-02-16T13:23:38.682Z,30.00
2019-02-16T13:29:28.199Z,30.60
2019-02-16T13:32:29.575Z,31.10
2019-02-16T13:35:15.276Z,31.00
2019-02-16T13:41:11.008Z,31.60
2019-02-16T13:43:53.058Z,31.30
2019-02-16T13:46:35.647Z,31.40
2019-02-16T13:49:35.964Z,31.40
2019-02-16T13:52:20.786Z,31.30
2019-02-16T13:55:23.579Z,30.40
2019-02-16T14:01:01.828Z,29.90
2019-02-16T14:03:46.811Z,30.50
2019-02-16T14:09:55.363Z,29.90
2019-02-16T14:18:34.667Z,29.10
2019-02-16T14:21:15.487Z,28.10
2019-02-16T14:23:56.691Z,28.30
2019-02-16T14:26:37.195Z,28.40
2019-02-16T14:29:17.759Z,28.60
2019-02-16T14:31:58.284Z,29.00
2019-02-16T14:34:38.912Z,29.20
2019-02-16T14:37:38.424Z,29.80
2019-02-16T14:40:18.927Z,30.40
2019-02-16T14:42:59.360Z,30.60
2019-02-16T14:45:40.479Z,31.00
2019-02-16T14:48:21.228Z,31.30
2019-02-16T14:51:01.647Z,31.40
2019-02-16T14:53:42.489Z,31.40
2019-02-16T14:56:23.516Z,31.20
2019-02-16T14:59:04.039Z,31.00
2019-02-16T15:01:44.473Z,30.70
2019-02-16T15:04:24.912Z,30.60
2019-02-16T15:07:05.332Z,30.40
2019-02-16T15:09:46.487Z,30.30
2019-02-16T15:12:27.180Z,30.10
2019-02-16T15:15:08.242Z,29.90
2019-02-16T15:17:48.685Z,29.70
2019-02-16T15:20:29.616Z,29.60
2019-02-16T15:23:10.633Z,29.40
2019-02-16T15:26:00.457Z,29.30
2019-02-16T15:28:34.436Z,29.10
2019-02-16T15:31:15.003Z,28.80
2019-02-16T15:33:55.781Z,28.40
2019-02-16T15:36:36.486Z,27.80
2019-02-16T15:39:17.184Z,27.20
2019-02-16T15:41:57.655Z,26.80
2019-02-16T15:44:38.451Z,26.10
2019-02-16T15:47:18.876Z,25.60
2019-02-16T15:49:59.308Z,25.30
2019-02-16T15:52:39.915Z,25.00
2019-02-16T15:55:20.855Z,24.70
2019-02-16T15:58:01.767Z,24.10
2019-02-16T16:00:42.701Z,23.70
2019-02-16T16:03:22.871Z,23.20
2019-02-16T16:06:03.644Z,22.80
2019-02-16T16:08:48.375Z,22.30
2019-02-16T16:11:31.105Z,21.70
2019-02-16T16:14:13.157Z,21.10
2019-02-16T16:16:55.556Z,20.60
2019-02-16T16:19:55.736Z,20.00
2019-02-16T16:25:57.484Z,18.40
2019-02-16T16:32:02.676Z,16.90
2019-02-16T16:38:18.386Z,15.50
2019-02-16T16:41:25.549Z,14.80
2019-02-16T16:44:32.505Z,14.30
2019-02-16T16:47:39.424Z,13.80
2019-02-16T16:50:46.337Z,13.50
2019-02-16T16:53:53.484Z,13.10
2019-02-16T16:57:00.404Z,12.70
2019-02-16T17:00:07.553Z,12.20
2019-02-16T17:09:03.680Z,11.30
2019-02-16T17:12:10.821Z,11.00
2019-02-16T17:15:17.983Z,10.60
2019-02-16T17:18:24.900Z,10.40
2019-02-16T17:24:18.264Z,9.90
2019-02-16T17:30:02.831Z,9.50
2019-02-16T17:32:48.211Z,9.30
2019-02-16T17:35:33.740Z,9.10
2019-02-16T17:38:16.281Z,8.90
2019-02-16T17:44:01.087Z,8.60
2019-02-16T17:49:49.868Z,8.30
2019-02-16T17:55:58.379Z,8.10
2019-02-16T17:58:43.772Z,8.00
2019-02-16T18:01:46.332Z,7.90
2019-02-16T18:04:31.540Z,7.80
2019-02-16T18:07:14.167Z,7.60
2019-02-16T18:09:57.008Z,7.40
2019-02-16T18:12:42.360Z,7.30
2019-02-16T18:21:23.640Z,7.10
2019-02-16T18:30:06.895Z,6.80
2019-02-16T18:36:00.755Z,6.70
2019-02-16T18:38:44.351Z,6.60
2019-02-16T18:41:26.470Z,6.50
2019-02-16T18:49:56.978Z,6.20
2019-02-16T18:52:58.432Z,6.20
2019-02-16T18:55:44.097Z,6.10
2019-02-16T18:58:45.419Z,6.00
2019-02-16T19:01:45.914Z,5.90
2019-02-16T19:07:35.797Z,5.70
2019-02-16T19:10:21.564Z,5.60
2019-02-16T19:13:06.825Z,5.50
2019-02-16T19:19:12.281Z,5.40
2019-02-16T19:22:13.259Z,5.40
2019-02-16T19:30:55.791Z,5.20
2019-02-16T19:33:56.991Z,5.10
2019-02-16T19:39:46.984Z,5.00
2019-02-16T19:42:29.451Z,4.90
2019-02-16T19:45:14.708Z,4.80
2019-02-16T19:47:57.588Z,4.80
2019-02-16T19:50:39.987Z,4.70
2019-02-16T19:53:22.819Z,4.70
2019-02-16T19:59:09.627Z,4.50
2019-02-16T20:05:17.596Z,4.30
2019-02-16T20:08:02.735Z,4.20
2019-02-16T20:11:04.416Z,4.10
2019-02-16T20:13:46.755Z,4.00
2019-02-16T20:16:31.944Z,3.90
2019-02-16T20:19:33.077Z,3.90
2019-02-16T20:28:16.199Z,3.60
2019-02-16T20:33:52.803Z,3.50
2019-02-16T20:36:34.876Z,3.50
2019-02-16T20:39:36.032Z,3.50
2019-02-16T20:42:17.899Z,3.50
2019-02-16T20:45:03.318Z,3.40
2019-02-16T20:50:49.438Z,3.40
2019-02-16T20:56:41.818Z,3.30
2019-02-16T20:59:23.643Z,3.20
2019-02-16T21:02:06.264Z,3.20
2019-02-16T21:04:51.723Z,3.20
2019-02-16T21:07:34.275Z,3.10
2019-02-16T21:10:19.719Z,3.10
2019-02-16T21:13:01.939Z,3.00
2019-02-16T21:15:44.624Z,2.90
2019-02-16T21:21:49.936Z,2.80
2019-02-16T21:27:43.993Z,2.80
2019-02-16T21:33:22.013Z,2.60
2019-02-16T21:39:15.012Z,2.60
2019-02-16T21:42:15.276Z,2.50
2019-02-16T21:44:57.913Z,2.50
2019-02-16T21:47:39.923Z,2.40
2019-02-16T21:50:40.368Z,2.40
2019-02-16T21:53:25.290Z,2.40
2019-02-16T21:56:07.346Z,2.20
2019-02-16T21:59:07.765Z,2.30
2019-02-16T22:01:50.451Z,2.20
2019-02-16T22:04:32.831Z,2.20
2019-02-16T22:07:31.538Z,2.10
2019-02-16T22:13:17.925Z,1.90
2019-02-16T22:16:05.981Z,1.90
2019-02-16T22:18:53.695Z,1.90
2019-02-16T22:21:41.680Z,1.90
2019-02-16T22:24:29.743Z,1.80
2019-02-16T22:27:17.788Z,1.80
2019-02-16T22:30:12.370Z,1.80
2019-02-16T22:33:00.347Z,1.80
2019-02-16T22:35:48.415Z,1.70
2019-02-16T22:38:36.458Z,1.70
2019-02-16T22:41:17.602Z,1.60
2019-02-16T22:43:58.163Z,1.60
2019-02-16T22:46:38.852Z,1.50
2019-02-16T22:49:19.895Z,1.50
2019-02-16T22:52:00.723Z,1.40
2019-02-16T22:54:41.551Z,1.40
2019-02-16T22:57:22.311Z,1.30
2019-02-16T23:00:03.068Z,1.30
2019-02-16T23:02:43.679Z,1.30
2019-02-16T23:05:24.059Z,1.30
2019-02-16T23:08:04.938Z,1.30
2019-02-16T23:10:45.327Z,1.30
2019-02-16T23:13:26.367Z,1.30
2019-02-16T23:16:06.911Z,1.30
2019-02-16T23:18:47.556Z,1.30
2019-02-16T23:21:28.206Z,1.30
2019-02-16T23:24:09.301Z,1.20
2019-02-16T23:26:49.819Z,1.20
2019-02-16T23:29:30.517Z,1.30
2019-02-16T23:32:11.624Z,1.20
2019-02-16T23:34:52.563Z,1.20
2019-02-16T23:37:33.248Z,1.30
2019-02-16T23:40:14.139Z,1.30
2019-02-16T23:42:54.424Z,1.20
2019-02-16T23:45:34.852Z,1.20
2019-02-16T23:48:15.240Z,1.20
2019-02-16T23:50:55.833Z,1.20
2019-02-16T23:53:36.343Z,1.20
2019-02-16T23:56:17.362Z,1.20
2019-02-16T23:58:57.836Z,1.20
